Numa, Colorado
Current Conditions -  °F | °C
As of 10:53 AM on Tuesday 21 Oct 2014 (Local Time) from KLHX Reporting Station
Clear Clear  
Wind Chill: 68°   Ceiling: Unl
Heat Index: 68°   Visibility: 10mi
Dew Point: 46°   Wind: 0mph
Humidity: 45%   Direction: NA
Pressure: 30.05"   Gusts: NA
Location:  38.363°N, 103.799°W
Report Text: KLHX 211653Z AUTO 00000KT 10SM CLR 20/08 A3005 RMK AO2 SLP138 T02000078
Loading
Personal Weather Stations






























Interactive Weather Map
Tropical Storm Tracking
New forecast layout! Learn more

10-Day Weather Forecast

Advertisements
Track Severe Weather on mobile